Time;durP1;ratioP1;P1;durP2;ratioP2;P2;SDS_P1;SDS_P2;PMS_P1;PMS_P2;Temp;Humidity;BMP_temperature;BMP_pressure;BME280_temperature;BME280_humidity;BME280_pressure;Samples;Min_cycle;Max_cycle;Signal;HPM_P1;HPM_P2
2024/03/21 00:00:59;;;;;;;83.30;41.40;;;;;;;;;;106553;1250;62026;-77
2024/03/21 00:03:45;;;;;;;87.00;45.50;;;;;;;;;;106582;1249;60925;-77
2024/03/21 00:06:12;;;;;;;81.40;46.20;;;;;;;;;;106517;1252;62038;-77
2024/03/21 00:08:38;;;;;;;82.00;40.30;;;;;;;;;;106457;1254;62028;-77
2024/03/21 00:11:04;;;;;;;84.70;42.60;;;;;;;;;;106514;1250;62256;-77
2024/03/21 00:13:31;;;;;;;77.00;38.00;;;;;;;;;;106578;1250;62205;-76
2024/03/21 00:15:57;;;;;;;79.60;38.10;;;;;;;;;;106574;1254;62070;-77
2024/03/21 00:18:24;;;;;;;79.70;37.80;;;;;;;;;;106645;1254;62049;-77
2024/03/21 00:20:50;;;;;;;87.80;44.10;;;;;;;;;;106580;1253;63512;-78
2024/03/21 00:23:17;;;;;;;76.00;38.40;;;;;;;;;;106616;1254;62165;-77
2024/03/21 00:25:43;;;;;;;85.20;39.20;;;;;;;;;;106592;1251;62182;-77
2024/03/21 00:28:11;;;;;;;71.40;37.30;;;;;;;;;;106632;1249;62066;-76
2024/03/21 00:30:39;;;;;;;73.20;35.10;;;;;;;;;;106525;1251;62176;-77
2024/03/21 00:33:05;;;;;;;56.00;29.10;;;;;;;;;;106538;1249;60354;-77
2024/03/21 00:35:32;;;;;;;72.20;36.60;;;;;;;;;;106548;1254;62061;-77
2024/03/21 00:37:58;;;;;;;79.70;38.40;;;;;;;;;;106601;1250;63224;-76
2024/03/21 00:40:25;;;;;;;79.60;38.80;;;;;;;;;;106624;1250;62029;-76
2024/03/21 00:42:51;;;;;;;79.90;40.50;;;;;;;;;;106555;1252;62067;-76
2024/03/21 00:45:17;;;;;;;78.00;39.60;;;;;;;;;;106533;1250;62158;-76
2024/03/21 00:47:43;;;;;;;85.80;43.00;;;;;;;;;;106600;1254;62063;-77
2024/03/21 00:50:10;;;;;;;78.60;40.60;;;;;;;;;;106595;1254;62141;-77
2024/03/21 00:52:36;;;;;;;74.50;38.80;;;;;;;;;;109158;1251;59980;-78
2024/03/21 00:55:02;;;;;;;83.50;39.10;;;;;;;;;;109567;1250;59926;-78
2024/03/21 00:57:29;;;;;;;67.90;36.20;;;;;;;;;;109625;1249;59702;-77
2024/03/21 00:59:55;;;;;;;72.10;38.00;;;;;;;;;;109664;1249;59738;-78
2024/03/21 01:02:22;;;;;;;72.80;36.70;;;;;;;;;;109629;1249;59905;-77
2024/03/21 01:04:50;;;;;;;72.90;34.90;;;;;;;;;;109669;1249;59654;-78
2024/03/21 01:07:17;;;;;;;74.80;35.00;;;;;;;;;;109629;1249;59725;-77
2024/03/21 01:09:47;;;;;;;74.70;37.50;;;;;;;;;;109628;1249;59670;-78
2024/03/21 01:12:13;;;;;;;81.60;40.20;;;;;;;;;;109662;1250;59721;-78
2024/03/21 01:14:40;;;;;;;74.80;39.00;;;;;;;;;;109629;1249;59759;-77
2024/03/21 01:17:06;;;;;;;83.30;39.80;;;;;;;;;;109632;1249;59648;-78
2024/03/21 01:19:32;;;;;;;71.00;36.70;;;;;;;;;;109612;1249;59889;-78
2024/03/21 01:21:58;;;;;;;80.40;37.40;;;;;;;;;;109635;1250;59924;-78
2024/03/21 01:24:24;;;;;;;104.60;42.70;;;;;;;;;;109688;1250;59670;-78
2024/03/21 01:26:51;;;;;;;74.90;36.90;;;;;;;;;;109655;1249;59829;-78
2024/03/21 01:29:17;;;;;;;68.20;35.80;;;;;;;;;;109661;1249;59699;-78
2024/03/21 01:31:43;;;;;;;67.60;38.20;;;;;;;;;;109628;1249;59749;-78
2024/03/21 01:34:09;;;;;;;73.70;40.60;;;;;;;;;;109631;1249;59932;-77
2024/03/21 01:36:45;;;;;;;75.30;37.20;;;;;;;;;;109639;1253;59711;-77
2024/03/21 01:39:12;;;;;;;74.40;37.00;;;;;;;;;;109648;1249;61532;-77
2024/03/21 01:41:38;;;;;;;75.30;40.20;;;;;;;;;;109648;1249;59735;-77
2024/03/21 01:44:05;;;;;;;78.60;36.70;;;;;;;;;;109656;1250;59997;-78
2024/03/21 01:46:31;;;;;;;62.20;34.60;;;;;;;;;;109641;1249;59839;-78
2024/03/21 01:48:57;;;;;;;73.40;38.00;;;;;;;;;;109694;1249;59672;-77
2024/03/21 01:51:24;;;;;;;68.20;33.80;;;;;;;;;;109666;1250;59824;-78
2024/03/21 01:53:51;;;;;;;80.50;36.10;;;;;;;;;;109646;1250;59667;-79
2024/03/21 01:56:17;;;;;;;69.70;36.00;;;;;;;;;;109678;1249;59795;-77
2024/03/21 01:58:43;;;;;;;70.80;34.10;;;;;;;;;;109659;1250;59637;-78
2024/03/21 02:01:18;;;;;;;74.10;39.80;;;;;;;;;;109680;1250;59824;-77
2024/03/21 02:03:45;;;;;;;71.00;34.20;;;;;;;;;;109663;1249;62716;-77
2024/03/21 02:06:12;;;;;;;70.50;34.90;;;;;;;;;;109709;1249;60003;-77
2024/03/21 02:08:38;;;;;;;71.80;34.40;;;;;;;;;;109653;1250;59856;-77
2024/03/21 02:11:04;;;;;;;65.10;33.20;;;;;;;;;;109652;1249;59615;-77
2024/03/21 02:13:30;;;;;;;68.90;33.10;;;;;;;;;;109640;1249;59611;-77
2024/03/21 02:15:57;;;;;;;65.20;33.40;;;;;;;;;;109682;1249;59714;-78
2024/03/21 02:18:23;;;;;;;62.90;34.60;;;;;;;;;;109670;1249;59870;-77
2024/03/21 02:20:49;;;;;;;63.50;32.60;;;;;;;;;;109639;1249;59656;-77
2024/03/21 02:23:16;;;;;;;68.70;34.50;;;;;;;;;;107415;1250;62157;-76
2024/03/21 02:25:42;;;;;;;67.50;36.00;;;;;;;;;;106586;1254;62025;-77
2024/03/21 02:28:09;;;;;;;77.10;38.20;;;;;;;;;;106569;1250;62238;-77
2024/03/21 02:30:35;;;;;;;65.50;32.50;;;;;;;;;;106547;1249;62142;-77
2024/03/21 02:33:01;;;;;;;74.40;37.30;;;;;;;;;;108723;1250;60066;-77
2024/03/21 02:35:28;;;;;;;66.70;38.10;;;;;;;;;;107836;1250;62152;-77
2024/03/21 02:37:54;;;;;;;73.60;37.00;;;;;;;;;;106582;1250;61961;-77
2024/03/21 02:40:20;;;;;;;66.00;34.30;;;;;;;;;;106530;1251;62049;-77
2024/03/21 02:42:47;;;;;;;73.60;36.20;;;;;;;;;;106561;1253;62069;-77
2024/03/21 02:45:13;;;;;;;72.30;34.80;;;;;;;;;;106503;1254;62033;-77
2024/03/21 02:47:39;;;;;;;73.30;34.60;;;;;;;;;;106531;1253;62167;-76
2024/03/21 02:50:06;;;;;;;72.10;37.50;;;;;;;;;;106522;1250;61907;-76
2024/03/21 02:52:32;;;;;;;70.40;34.40;;;;;;;;;;106533;1253;62067;-77
2024/03/21 02:54:58;;;;;;;59.80;34.00;;;;;;;;;;106472;1250;62112;-77
2024/03/21 02:57:25;;;;;;;68.00;35.80;;;;;;;;;;106550;1250;62253;-76
2024/03/21 02:59:51;;;;;;;70.40;35.60;;;;;;;;;;106553;1254;62138;-77
2024/03/21 03:02:17;;;;;;;66.70;33.00;;;;;;;;;;106525;1250;63739;-76
2024/03/21 03:04:44;;;;;;;72.00;33.20;;;;;;;;;;106549;1250;61926;-76
2024/03/21 03:07:10;;;;;;;66.30;34.60;;;;;;;;;;106590;1254;62151;-76
2024/03/21 03:09:36;;;;;;;69.10;36.50;;;;;;;;;;106532;1254;62631;-77
2024/03/21 03:12:03;;;;;;;65.20;30.60;;;;;;;;;;106613;1250;62032;-76
2024/03/21 03:14:29;;;;;;;64.90;31.90;;;;;;;;;;106631;1254;62064;-77
2024/03/21 03:16:55;;;;;;;68.60;34.30;;;;;;;;;;106520;1250;62084;-76
2024/03/21 03:19:22;;;;;;;69.90;33.50;;;;;;;;;;106555;1254;61918;-77
2024/03/21 03:21:48;;;;;;;67.60;31.80;;;;;;;;;;106524;1250;62091;-76
2024/03/21 03:24:14;;;;;;;59.10;32.30;;;;;;;;;;106553;1250;62096;-77
2024/03/21 03:26:40;;;;;;;69.40;33.70;;;;;;;;;;106476;1250;62073;-76
2024/03/21 03:29:06;;;;;;;68.80;34.50;;;;;;;;;;106499;1254;62134;-76
2024/03/21 03:31:33;;;;;;;68.60;36.10;;;;;;;;;;106580;1250;62036;-77
2024/03/21 03:36:44;;;;;;;69.40;36.70;;;;;;;;;;106499;1253;61947;-76
2024/03/21 03:39:10;;;;;;;61.30;32.40;;;;;;;;;;106559;1254;62496;-76
2024/03/21 03:41:36;;;;;;;74.20;36.40;;;;;;;;;;106538;1250;62031;-76
2024/03/21 03:44:04;;;;;;;66.10;31.00;;;;;;;;;;106622;1251;62098;-76
2024/03/21 03:46:30;;;;;;;65.90;31.20;;;;;;;;;;106520;1253;62027;-76
2024/03/21 03:48:56;;;;;;;63.90;30.70;;;;;;;;;;106562;1250;62141;-77
2024/03/21 03:51:22;;;;;;;69.10;31.10;;;;;;;;;;106559;1250;62160;-76
2024/03/21 03:53:50;;;;;;;67.80;34.00;;;;;;;;;;106593;1254;62154;-77
2024/03/21 03:56:16;;;;;;;63.00;29.90;;;;;;;;;;106591;1250;61988;-76
2024/03/21 03:58:42;;;;;;;64.00;33.70;;;;;;;;;;106533;1251;63043;-77
2024/03/21 04:01:09;;;;;;;54.40;26.90;;;;;;;;;;106554;1250;62131;-77
2024/03/21 04:03:35;;;;;;;60.50;31.30;;;;;;;;;;106519;1255;62534;-77
2024/03/21 04:06:02;;;;;;;52.80;28.10;;;;;;;;;;106505;1250;62149;-77
2024/03/21 04:08:29;;;;;;;67.40;31.00;;;;;;;;;;106541;1254;62048;-77
2024/03/21 04:10:55;;;;;;;57.20;29.90;;;;;;;;;;106552;1255;62150;-77
2024/03/21 04:13:22;;;;;;;65.50;32.00;;;;;;;;;;106531;1250;62095;-77
2024/03/21 04:15:52;;;;;;;67.40;29.90;;;;;;;;;;106528;1250;62061;-77
2024/03/21 04:18:18;;;;;;;58.50;30.50;;;;;;;;;;106601;1250;62078;-77
2024/03/21 04:20:45;;;;;;;61.90;31.60;;;;;;;;;;106537;1250;63205;-77
2024/03/21 04:23:11;;;;;;;62.80;31.30;;;;;;;;;;106556;1251;62170;-77
2024/03/21 04:25:37;;;;;;;56.40;29.40;;;;;;;;;;106577;1250;62140;-76
2024/03/21 04:28:04;;;;;;;68.00;32.90;;;;;;;;;;106547;1251;62113;-77
2024/03/21 04:30:30;;;;;;;62.10;30.40;;;;;;;;;;106583;1254;61938;-77
2024/03/21 04:32:57;;;;;;;61.20;29.90;;;;;;;;;;107693;1250;62179;-77
2024/03/21 04:35:24;;;;;;;71.00;29.90;;;;;;;;;;109627;1250;60065;-77
2024/03/21 04:37:50;;;;;;;60.40;30.80;;;;;;;;;;109674;1251;59678;-77
2024/03/21 04:40:16;;;;;;;61.30;31.20;;;;;;;;;;109673;1250;59731;-77
2024/03/21 04:42:42;;;;;;;64.00;31.70;;;;;;;;;;109652;1253;59709;-78
2024/03/21 04:45:09;;;;;;;57.10;29.00;;;;;;;;;;109652;1250;59611;-77
2024/03/21 04:47:35;;;;;;;51.50;28.20;;;;;;;;;;108919;1250;60853;-78
2024/03/21 04:50:01;;;;;;;84.80;31.00;;;;;;;;;;106559;1250;62101;-77
2024/03/21 04:52:28;;;;;;;64.60;28.50;;;;;;;;;;106533;1251;62145;-77
2024/03/21 04:54:55;;;;;;;60.70;27.10;;;;;;;;;;106552;1250;62074;-77
2024/03/21 04:57:21;;;;;;;48.90;26.80;;;;;;;;;;106539;1250;62153;-76
2024/03/21 04:59:47;;;;;;;61.70;28.80;;;;;;;;;;106544;1251;62091;-77
2024/03/21 05:02:13;;;;;;;58.40;29.10;;;;;;;;;;106735;1255;62129;-76
2024/03/21 05:04:40;;;;;;;57.90;27.30;;;;;;;;;;106686;1254;62507;-76
2024/03/21 05:07:07;;;;;;;58.60;28.40;;;;;;;;;;106749;1253;62064;-77
2024/03/21 05:09:33;;;;;;;56.40;27.70;;;;;;;;;;106571;1256;62018;-77
2024/03/21 05:11:59;;;;;;;60.00;29.90;;;;;;;;;;106594;1250;62036;-77
2024/03/21 05:14:25;;;;;;;59.20;31.50;;;;;;;;;;106756;1255;60508;-77
2024/03/21 05:16:52;;;;;;;55.30;28.50;;;;;;;;;;106682;1250;62127;-77
2024/03/21 05:19:18;;;;;;;63.40;31.00;;;;;;;;;;106545;1250;62512;-76
2024/03/21 05:21:44;;;;;;;62.70;29.50;;;;;;;;;;106533;1250;62128;-77
2024/03/21 05:24:11;;;;;;;55.10;30.70;;;;;;;;;;106581;1254;62157;-76
2024/03/21 05:26:37;;;;;;;61.50;32.80;;;;;;;;;;106584;1250;62073;-77
2024/03/21 05:29:03;;;;;;;62.50;29.00;;;;;;;;;;106562;1250;62139;-76
2024/03/21 05:31:30;;;;;;;62.30;31.40;;;;;;;;;;106547;1254;62141;-77
2024/03/21 05:33:58;;;;;;;63.50;31.60;;;;;;;;;;106534;1249;62236;-76
2024/03/21 05:36:24;;;;;;;69.60;32.50;;;;;;;;;;106511;1250;62032;-77
2024/03/21 05:38:50;;;;;;;62.70;34.00;;;;;;;;;;106507;1256;62148;-77
2024/03/21 05:41:16;;;;;;;71.00;34.50;;;;;;;;;;106529;1250;62065;-76
2024/03/21 05:43:43;;;;;;;67.10;35.80;;;;;;;;;;106554;1251;62500;-78
2024/03/21 05:46:09;;;;;;;65.50;34.10;;;;;;;;;;106548;1253;62029;-77
2024/03/21 05:48:35;;;;;;;58.80;31.40;;;;;;;;;;106524;1250;62056;-76
2024/03/21 05:51:02;;;;;;;60.00;29.10;;;;;;;;;;106730;1250;62164;-77
2024/03/21 05:53:28;;;;;;;67.90;32.30;;;;;;;;;;109707;1249;59995;-77
2024/03/21 05:56:07;;;;;;;52.30;27.80;;;;;;;;;;109650;1249;59952;-77
2024/03/21 05:58:34;;;;;;;69.80;35.80;;;;;;;;;;109671;1250;59941;-77
2024/03/21 06:03:36;;;;;;;57.70;26.60;;;;;;;;;;109547;1250;63234;-77
2024/03/21 06:06:02;;;;;;;56.70;28.40;;;;;;;;;;108940;1250;61642;-77
2024/03/21 06:08:28;;;;;;;52.90;27.20;;;;;;;;;;106512;1256;62645;-76
2024/03/21 06:10:55;;;;;;;66.10;34.20;;;;;;;;;;106452;1255;169725;-78
2024/03/21 06:13:21;;;;;;;70.40;32.20;;;;;;;;;;106608;1253;62912;-77
2024/03/21 06:15:47;;;;;;;64.60;31.00;;;;;;;;;;106552;1254;62075;-78
2024/03/21 06:18:14;;;;;;;74.10;34.50;;;;;;;;;;106597;1255;62756;-77
2024/03/21 06:20:40;;;;;;;65.60;33.30;;;;;;;;;;106648;1250;62109;-76
2024/03/21 06:23:07;;;;;;;71.50;31.70;;;;;;;;;;106507;1254;62087;-76
2024/03/21 06:25:33;;;;;;;65.50;31.70;;;;;;;;;;106527;1254;62055;-76
2024/03/21 06:28:01;;;;;;;77.10;39.80;;;;;;;;;;106504;1250;62025;-77
2024/03/21 06:30:28;;;;;;;86.50;41.70;;;;;;;;;;106525;1251;62160;-76
2024/03/21 06:32:54;;;;;;;83.50;36.90;;;;;;;;;;106571;1250;62074;-76
2024/03/21 06:35:20;;;;;;;85.60;42.70;;;;;;;;;;106521;1254;62158;-76
2024/03/21 06:37:53;;;;;;;72.30;39.10;;;;;;;;;;106604;1253;62250;-77
2024/03/21 06:40:19;;;;;;;73.50;37.00;;;;;;;;;;106503;1253;62735;-76
2024/03/21 06:42:45;;;;;;;66.30;33.20;;;;;;;;;;106594;1253;62233;-76
2024/03/21 06:45:11;;;;;;;75.30;35.50;;;;;;;;;;106766;1254;62027;-77
2024/03/21 06:47:38;;;;;;;62.50;33.90;;;;;;;;;;106654;1254;61899;-77
2024/03/21 06:50:06;;;;;;;61.00;29.50;;;;;;;;;;106719;1255;62133;-77
2024/03/21 06:52:34;;;;;;;68.10;30.60;;;;;;;;;;106788;1251;63675;-77
2024/03/21 06:55:00;;;;;;;56.60;29.70;;;;;;;;;;106599;1254;61917;-77
2024/03/21 06:57:27;;;;;;;59.30;32.20;;;;;;;;;;106666;1250;62089;-78
2024/03/21 06:59:53;;;;;;;64.30;32.20;;;;;;;;;;106681;1251;63321;-76
2024/03/21 07:02:19;;;;;;;57.80;30.10;;;;;;;;;;106696;1250;62075;-77
2024/03/21 07:04:46;;;;;;;59.90;30.40;;;;;;;;;;106642;1253;62910;-78
2024/03/21 07:07:13;;;;;;;57.90;29.90;;;;;;;;;;106784;1253;62138;-78
2024/03/21 07:09:40;;;;;;;56.30;30.10;;;;;;;;;;106748;1254;62154;-79
2024/03/21 07:12:06;;;;;;;62.70;34.70;;;;;;;;;;106768;1255;62074;-77
2024/03/21 07:14:33;;;;;;;68.00;33.00;;;;;;;;;;106788;1254;62142;-78
2024/03/21 07:16:59;;;;;;;65.10;34.20;;;;;;;;;;106746;1255;61738;-77
2024/03/21 07:19:33;;;;;;;77.60;33.60;;;;;;;;;;106770;1248;62269;-78
2024/03/21 07:22:00;;;;;;;56.20;30.70;;;;;;;;;;107487;1250;61920;-79
2024/03/21 07:24:28;;;;;;;58.20;29.70;;;;;;;;;;109600;1250;59912;-79
2024/03/21 07:26:54;;;;;;;52.30;29.90;;;;;;;;;;109643;1250;59659;-75
2024/03/21 07:29:21;;;;;;;45.50;27.50;;;;;;;;;;109676;1250;62888;-75
2024/03/21 07:31:47;;;;;;;56.20;28.20;;;;;;;;;;109651;1251;59539;-75
2024/03/21 07:34:13;;;;;;;46.30;27.50;;;;;;;;;;109602;1253;59675;-77
2024/03/21 07:36:40;;;;;;;59.60;32.30;;;;;;;;;;109464;1253;60083;-77
2024/03/21 07:39:06;;;;;;;52.20;27.60;;;;;;;;;;109597;1250;59996;-77
2024/03/21 07:41:32;;;;;;;51.30;26.40;;;;;;;;;;109564;1250;59913;-76
2024/03/21 07:44:00;;;;;;;68.40;26.30;;;;;;;;;;109601;1251;59688;-77
2024/03/21 07:46:26;;;;;;;54.00;26.80;;;;;;;;;;109549;1250;59698;-78
2024/03/21 07:48:53;;;;;;;43.50;25.50;;;;;;;;;;108548;1253;60280;-78
2024/03/21 07:51:20;;;;;;;54.50;35.30;;;;;;;;;;106783;1250;62794;-77
2024/03/21 07:53:46;;;;;;;47.50;27.00;;;;;;;;;;106879;1248;62143;-78
2024/03/21 07:56:12;;;;;;;43.40;27.30;;;;;;;;;;106729;1250;62110;-76
2024/03/21 07:58:38;;;;;;;51.70;27.70;;;;;;;;;;106732;1250;62104;-76
2024/03/21 08:01:05;;;;;;;46.00;26.50;;;;;;;;;;106654;1253;62224;-75
2024/03/21 08:03:31;;;;;;;46.60;26.00;;;;;;;;;;106846;1250;62039;-77
2024/03/21 08:05:57;;;;;;;40.40;24.80;;;;;;;;;;106843;1253;62147;-77
2024/03/21 08:08:24;;;;;;;38.40;24.00;;;;;;;;;;106758;1254;62499;-78
2024/03/21 08:10:50;;;;;;;40.20;24.70;;;;;;;;;;106666;1250;62126;-78
2024/03/21 08:13:17;;;;;;;45.10;28.10;;;;;;;;;;109573;1250;59784;-77
2024/03/21 08:15:44;;;;;;;42.70;24.80;;;;;;;;;;107642;1253;62793;-76
2024/03/21 08:18:10;;;;;;;41.00;24.20;;;;;;;;;;106857;1250;62149;-78
2024/03/21 08:20:37;;;;;;;38.90;23.70;;;;;;;;;;106774;1254;62163;-78
2024/03/21 08:23:03;;;;;;;40.90;24.70;;;;;;;;;;106769;1256;62044;-76
2024/03/21 08:25:29;;;;;;;35.10;22.00;;;;;;;;;;106795;1256;62124;-76
2024/03/21 08:27:55;;;;;;;46.90;28.00;;;;;;;;;;106754;1256;62567;-80
2024/03/21 08:30:22;;;;;;;42.20;25.10;;;;;;;;;;106652;1255;62013;-78
2024/03/21 08:32:49;;;;;;;46.20;25.90;;;;;;;;;;106681;1254;61971;-78
2024/03/21 08:35:15;;;;;;;39.60;22.80;;;;;;;;;;106695;1254;62154;-77
2024/03/21 08:37:42;;;;;;;38.50;20.80;;;;;;;;;;106899;1250;62047;-78
2024/03/21 08:40:09;;;;;;;34.40;21.10;;;;;;;;;;106726;1256;62094;-78
2024/03/21 08:42:35;;;;;;;29.30;19.90;;;;;;;;;;106711;1254;62074;-78
2024/03/21 08:45:03;;;;;;;34.40;20.40;;;;;;;;;;106835;1253;62073;-75
2024/03/21 08:47:29;;;;;;;31.10;18.60;;;;;;;;;;106700;1251;62135;-76
2024/03/21 08:49:55;;;;;;;32.00;20.40;;;;;;;;;;106600;1253;62141;-76
2024/03/21 08:52:22;;;;;;;27.60;18.90;;;;;;;;;;106943;1254;62089;-78
2024/03/21 08:54:48;;;;;;;33.40;22.20;;;;;;;;;;107000;1254;62137;-78
2024/03/21 08:57:14;;;;;;;33.70;21.60;;;;;;;;;;107057;1252;62070;-77
2024/03/21 08:59:40;;;;;;;28.40;18.60;;;;;;;;;;106889;1253;62154;-79
2024/03/21 09:02:07;;;;;;;28.80;18.10;;;;;;;;;;106836;1254;62073;-77
2024/03/21 09:04:33;;;;;;;36.20;19.90;;;;;;;;;;106724;1255;62001;-78
2024/03/21 09:06:59;;;;;;;25.30;18.00;;;;;;;;;;106853;1255;62036;-78
2024/03/21 09:09:25;;;;;;;29.30;18.00;;;;;;;;;;106690;1253;62124;-76
2024/03/21 09:11:54;;;;;;;36.10;19.90;;;;;;;;;;106671;1263;62185;-78
2024/03/21 09:14:20;;;;;;;28.70;18.00;;;;;;;;;;106753;1256;62070;-79
2024/03/21 09:16:47;;;;;;;46.70;18.80;;;;;;;;;;106814;1256;63559;-77
2024/03/21 09:19:13;;;;;;;33.30;18.20;;;;;;;;;;106720;1253;63615;-79
2024/03/21 09:21:39;;;;;;;32.00;19.30;;;;;;;;;;106791;1255;62848;-77
2024/03/21 09:24:06;;;;;;;24.50;16.70;;;;;;;;;;106618;1250;62214;-78
2024/03/21 09:26:34;;;;;;;27.10;16.30;;;;;;;;;;106901;1254;62173;-78
2024/03/21 09:29:01;;;;;;;29.60;17.00;;;;;;;;;;106619;1251;62033;-77
2024/03/21 09:31:27;;;;;;;29.70;16.70;;;;;;;;;;106632;1250;63662;-77
2024/03/21 09:33:53;;;;;;;33.50;18.00;;;;;;;;;;106519;1250;62137;-77
2024/03/21 09:36:21;;;;;;;27.80;16.70;;;;;;;;;;106694;1252;62035;-76
2024/03/21 09:38:47;;;;;;;31.40;17.50;;;;;;;;;;107247;1253;61567;-77
2024/03/21 09:41:13;;;;;;;29.50;16.30;;;;;;;;;;106579;1254;62140;-77
2024/03/21 09:43:40;;;;;;;30.20;16.80;;;;;;;;;;106537;1256;62042;-76
2024/03/21 09:46:07;;;;;;;30.00;18.40;;;;;;;;;;106792;1254;61910;-78
2024/03/21 09:48:33;;;;;;;27.70;16.30;;;;;;;;;;106697;1256;62007;-76
2024/03/21 09:50:59;;;;;;;26.90;15.90;;;;;;;;;;106621;1254;62074;-78
2024/03/21 09:53:26;;;;;;;29.50;16.90;;;;;;;;;;106640;1254;62053;-76
2024/03/21 09:55:52;;;;;;;36.50;20.30;;;;;;;;;;106723;1254;62213;-78
2024/03/21 09:58:19;;;;;;;26.10;17.20;;;;;;;;;;106604;1251;62572;-76
2024/03/21 10:00:45;;;;;;;27.10;16.00;;;;;;;;;;106557;1253;62079;-78
2024/03/21 10:03:15;;;;;;;24.60;15.20;;;;;;;;;;106551;1254;62146;-76
2024/03/21 10:05:41;;;;;;;25.80;15.80;;;;;;;;;;106705;1251;62035;-76
2024/03/21 10:08:08;;;;;;;25.80;16.20;;;;;;;;;;106762;1251;62799;-78
2024/03/21 10:10:34;;;;;;;31.90;17.50;;;;;;;;;;106584;1252;63084;-76
2024/03/21 10:13:00;;;;;;;31.40;19.00;;;;;;;;;;106811;1251;62058;-76
2024/03/21 10:15:27;;;;;;;32.00;18.40;;;;;;;;;;106828;1253;62901;-76
2024/03/21 10:17:53;;;;;;;33.20;18.00;;;;;;;;;;107066;1252;60355;-76
2024/03/21 10:20:19;;;;;;;27.20;15.90;;;;;;;;;;106951;1253;62112;-76
2024/03/21 10:22:46;;;;;;;31.40;17.00;;;;;;;;;;107006;1251;61881;-76
2024/03/21 10:25:13;;;;;;;25.90;15.90;;;;;;;;;;106875;1251;61966;-79
2024/03/21 10:27:41;;;;;;;29.00;15.80;;;;;;;;;;107079;1253;64047;-77
2024/03/21 10:30:18;;;;;;;23.80;15.10;;;;;;;;;;106627;1255;62007;-78
2024/03/21 10:32:44;;;;;;;26.10;14.80;;;;;;;;;;106708;1251;62731;-77
2024/03/21 10:35:17;;;;;;;26.50;16.80;;;;;;;;;;106629;1251;62147;-77
2024/03/21 10:37:44;;;;;;;23.70;14.60;;;;;;;;;;106710;1251;61953;-78
2024/03/21 10:40:14;;;;;;;27.80;16.90;;;;;;;;;;106624;1250;62096;-78
2024/03/21 10:42:45;;;;;;;30.20;15.20;;;;;;;;;;106656;1254;62735;-78
2024/03/21 10:45:12;;;;;;;28.80;15.70;;;;;;;;;;106673;1256;62705;-78
2024/03/21 10:47:45;;;;;;;25.60;16.30;;;;;;;;;;106662;1251;62136;-76
2024/03/21 10:50:21;;;;;;;24.00;14.80;;;;;;;;;;106678;1253;61962;-76
2024/03/21 10:52:51;;;;;;;29.80;14.90;;;;;;;;;;106716;1251;62259;-77
2024/03/21 10:55:18;;;;;;;32.60;14.40;;;;;;;;;;106910;1253;62077;-76
2024/03/21 10:57:51;;;;;;;28.80;16.00;;;;;;;;;;109541;1250;62665;-77
2024/03/21 11:00:18;;;;;;;24.00;15.20;;;;;;;;;;109568;1251;59935;-77
2024/03/21 11:02:47;;;;;;;24.80;14.80;;;;;;;;;;109588;1252;59947;-77
2024/03/21 11:05:13;;;;;;;26.90;15.50;;;;;;;;;;109598;1250;59744;-77
2024/03/21 11:07:39;;;;;;;24.50;14.40;;;;;;;;;;109596;1253;59828;-78
2024/03/21 11:10:06;;;;;;;25.80;15.00;;;;;;;;;;107589;1254;62144;-79
2024/03/21 11:12:32;;;;;;;26.30;15.80;;;;;;;;;;106710;1251;62061;-79
2024/03/21 11:14:59;;;;;;;22.60;15.00;;;;;;;;;;106919;1254;62156;-76
2024/03/21 11:17:25;;;;;;;28.20;15.50;;;;;;;;;;106937;1253;61959;-78
2024/03/21 11:19:52;;;;;;;25.90;15.90;;;;;;;;;;106901;1251;62084;-78
2024/03/21 11:22:18;;;;;;;26.00;16.10;;;;;;;;;;106713;1251;63721;-78
2024/03/21 11:24:44;;;;;;;29.20;15.90;;;;;;;;;;106749;1254;62041;-76
2024/03/21 11:27:17;;;;;;;40.70;17.40;;;;;;;;;;106842;1251;62712;-79
2024/03/21 11:29:43;;;;;;;31.70;17.30;;;;;;;;;;106759;1251;62176;-77
2024/03/21 11:32:10;;;;;;;25.50;16.10;;;;;;;;;;106787;1251;62157;-78
2024/03/21 11:34:40;;;;;;;29.00;17.50;;;;;;;;;;106766;1250;62756;-76
2024/03/21 11:37:06;;;;;;;30.40;16.20;;;;;;;;;;106947;1252;62044;-76
2024/03/21 11:39:35;;;;;;;31.70;17.40;;;;;;;;;;106842;1254;64173;-78
2024/03/21 11:42:02;;;;;;;63.90;35.10;;;;;;;;;;106982;1254;62106;-77
2024/03/21 11:44:28;;;;;;;96.30;54.50;;;;;;;;;;106799;1251;62166;-76
2024/03/21 11:46:55;;;;;;;69.60;36.30;;;;;;;;;;107110;1253;62069;-77
2024/03/21 11:49:21;;;;;;;49.40;28.80;;;;;;;;;;107033;1250;62496;-77
2024/03/21 11:51:47;;;;;;;35.40;22.20;;;;;;;;;;107658;1253;62008;-78
2024/03/21 11:54:15;;;;;;;36.50;18.60;;;;;;;;;;109624;1251;59767;-77
2024/03/21 11:56:41;;;;;;;136.80;81.40;;;;;;;;;;109635;1251;59986;-78
2024/03/21 11:59:10;;;;;;;63.70;39.80;;;;;;;;;;109660;1250;59726;-77
2024/03/21 12:01:36;;;;;;;49.90;31.20;;;;;;;;;;109582;1251;59956;-78
2024/03/21 12:04:03;;;;;;;36.50;21.40;;;;;;;;;;109568;1251;59947;-77
2024/03/21 12:06:29;;;;;;;28.30;17.30;;;;;;;;;;109633;1251;59873;-77
2024/03/21 12:08:55;;;;;;;46.80;29.80;;;;;;;;;;109598;1251;59662;-78
2024/03/21 12:11:22;;;;;;;27.90;17.70;;;;;;;;;;109607;1251;59739;-79
2024/03/21 12:13:48;;;;;;;29.20;20.60;;;;;;;;;;109397;1253;59643;-78
2024/03/21 12:16:15;;;;;;;29.70;15.50;;;;;;;;;;106754;1251;62131;-78
2024/03/21 12:18:41;;;;;;;30.60;18.30;;;;;;;;;;106741;1251;62092;-78
2024/03/21 12:21:10;;;;;;;27.40;16.70;;;;;;;;;;106754;1253;62150;-78
2024/03/21 12:23:37;;;;;;;;;;;;;;;;;;106909;1253;62753;-78
2024/03/21 12:26:03;;;;;;;31.50;19.40;;;;;;;;;;106887;1250;62231;-78
2024/03/21 12:28:30;;;;;;;30.90;17.30;;;;;;;;;;108638;1251;60117;-78
2024/03/21 12:30:57;;;;;;;45.50;29.00;;;;;;;;;;109606;1251;59817;-77
2024/03/21 12:33:23;;;;;;;34.60;22.20;;;;;;;;;;109680;1248;60077;-79
2024/03/21 12:35:49;;;;;;;48.80;27.10;;;;;;;;;;109705;1251;59741;-77
2024/03/21 12:38:15;;;;;;;91.30;52.80;;;;;;;;;;109648;1251;59961;-77
2024/03/21 12:40:42;;;;;;;105.60;69.50;;;;;;;;;;109503;1251;59779;-78
2024/03/21 12:43:08;;;;;;;27.70;17.60;;;;;;;;;;108695;1250;62144;-80
2024/03/21 12:45:34;;;;;;;85.60;65.10;;;;;;;;;;106836;1251;62535;-79
2024/03/21 12:48:01;;;;;;;30.00;18.20;;;;;;;;;;106861;1251;62069;-78
2024/03/21 12:50:27;;;;;;;33.00;13.10;;;;;;;;;;106891;1250;62409;-77
2024/03/21 12:52:54;;;;;;;22.70;14.00;;;;;;;;;;106903;1251;60717;-76
2024/03/21 12:55:20;;;;;;;42.50;30.30;;;;;;;;;;107153;1253;62099;-77
2024/03/21 12:57:47;;;;;;;26.70;15.80;;;;;;;;;;106951;1253;62083;-77
2024/03/21 13:00:13;;;;;;;31.90;15.00;;;;;;;;;;107051;1251;62117;-76
2024/03/21 13:02:39;;;;;;;26.30;14.60;;;;;;;;;;107169;1249;62151;-78
2024/03/21 13:05:08;;;;;;;24.90;15.00;;;;;;;;;;107044;1253;62035;-78
2024/03/21 13:07:35;;;;;;;22.30;12.00;;;;;;;;;;106933;1253;62126;-78
2024/03/21 13:10:01;;;;;;;18.50;8.20;;;;;;;;;;106897;1253;62032;-78
2024/03/21 13:12:29;;;;;;;17.40;10.80;;;;;;;;;;106590;1251;62632;-78
2024/03/21 13:14:56;;;;;;;13.20;7.30;;;;;;;;;;106691;1254;62082;-79
2024/03/21 13:17:22;;;;;;;12.10;7.60;;;;;;;;;;106662;1254;63184;-78
2024/03/21 13:19:48;;;;;;;14.40;8.90;;;;;;;;;;106581;1251;62109;-77
2024/03/21 13:22:14;;;;;;;12.90;7.00;;;;;;;;;;106607;1251;62070;-77
2024/03/21 13:24:41;;;;;;;16.80;8.20;;;;;;;;;;106704;1251;62137;-78
2024/03/21 13:27:08;;;;;;;11.50;6.90;;;;;;;;;;106645;1251;61914;-77
2024/03/21 13:29:34;;;;;;;12.90;7.00;;;;;;;;;;106609;1251;62243;-77
2024/03/21 13:32:00;;;;;;;10.60;6.80;;;;;;;;;;106598;1251;62158;-77
2024/03/21 13:34:28;;;;;;;14.10;7.10;;;;;;;;;;106662;1252;62090;-77
2024/03/21 13:36:54;;;;;;;9.20;5.00;;;;;;;;;;106766;1254;62110;-78
2024/03/21 13:39:20;;;;;;;19.10;11.30;;;;;;;;;;106657;1251;62201;-78
2024/03/21 13:41:47;;;;;;;20.70;11.90;;;;;;;;;;106863;1250;63615;-76
2024/03/21 13:44:13;;;;;;;60.20;48.90;;;;;;;;;;106573;1251;62120;-76
2024/03/21 13:46:39;;;;;;;86.90;68.20;;;;;;;;;;106593;1251;62443;-78
2024/03/21 13:49:06;;;;;;;15.00;10.40;;;;;;;;;;106664;1251;62155;-78
2024/03/21 13:51:33;;;;;;;31.20;20.20;;;;;;;;;;107642;1251;60251;-78
2024/03/21 13:54:00;;;;;;;37.00;24.30;;;;;;;;;;109613;1250;59715;-77
2024/03/21 13:56:28;;;;;;;13.60;9.30;;;;;;;;;;109560;1251;60171;-79
2024/03/21 13:58:55;;;;;;;46.40;40.90;;;;;;;;;;109614;1250;59835;-75
2024/03/21 14:01:21;;;;;;;38.60;33.60;;;;;;;;;;109573;1250;62628;-77
2024/03/21 14:03:48;;;;;;;10.80;7.90;;;;;;;;;;109606;1250;59915;-72
2024/03/21 14:06:18;;;;;;;10.70;5.90;;;;;;;;;;109545;1249;59829;-79
2024/03/21 14:08:45;;;;;;;11.40;7.80;;;;;;;;;;109586;1250;59898;-78